sensor_id;sensor_type;location;lat;lon;timestamp;temperature;humidity
73576;DHT22;61859;49.204;8.140;2023-06-04T00:00:26;16.80;50.20
73576;DHT22;61859;49.204;8.140;2023-06-04T00:02:52;16.80;50.30
73576;DHT22;61859;49.204;8.140;2023-06-04T00:05:17;16.80;50.20
73576;DHT22;61859;49.204;8.140;2023-06-04T00:07:43;16.80;50.40
73576;DHT22;61859;49.204;8.140;2023-06-04T00:10:09;16.80;50.00
73576;DHT22;61859;49.204;8.140;2023-06-04T00:12:35;16.70;49.90
73576;DHT22;61859;49.204;8.140;2023-06-04T00:15:01;16.70;50.20
73576;DHT22;61859;49.204;8.140;2023-06-04T00:17:27;16.70;50.10
73576;DHT22;61859;49.204;8.140;2023-06-04T00:19:52;16.70;50.20
73576;DHT22;61859;49.204;8.140;2023-06-04T00:22:18;16.70;49.90
73576;DHT22;61859;49.204;8.140;2023-06-04T00:24:43;16.70;50.10
73576;DHT22;61859;49.204;8.140;2023-06-04T00:27:09;16.70;50.20
73576;DHT22;61859;49.204;8.140;2023-06-04T00:29:35;16.60;50.00
73576;DHT22;61859;49.204;8.140;2023-06-04T00:32:00;16.60;50.50
73576;DHT22;61859;49.204;8.140;2023-06-04T00:34:26;16.50;50.10
73576;DHT22;61859;49.204;8.140;2023-06-04T00:36:51;16.50;50.40
73576;DHT22;61859;49.204;8.140;2023-06-04T00:39:17;16.40;50.50
73576;DHT22;61859;49.204;8.140;2023-06-04T00:41:42;16.40;50.70
73576;DHT22;61859;49.204;8.140;2023-06-04T00:44:08;16.40;50.70
73576;DHT22;61859;49.204;8.140;2023-06-04T00:46:34;16.20;51.00
73576;DHT22;61859;49.204;8.140;2023-06-04T00:49:01;16.30;51.70
73576;DHT22;61859;49.204;8.140;2023-06-04T00:51:30;16.20;51.40
73576;DHT22;61859;49.204;8.140;2023-06-04T00:53:56;16.00;51.70
73576;DHT22;61859;49.204;8.140;2023-06-04T00:56:22;16.00;52.60
73576;DHT22;61859;49.204;8.140;2023-06-04T00:58:47;15.90;52.10
73576;DHT22;61859;49.204;8.140;2023-06-04T01:01:31;15.80;51.90
73576;DHT22;61859;49.204;8.140;2023-06-04T01:04:00;15.90;51.80
73576;DHT22;61859;49.204;8.140;2023-06-04T01:06:34;15.90;51.50
73576;DHT22;61859;49.204;8.140;2023-06-04T01:09:01;15.90;51.30
73576;DHT22;61859;49.204;8.140;2023-06-04T01:11:45;15.90;51.10
73576;DHT22;61859;49.204;8.140;2023-06-04T01:14:10;15.90;50.90
73576;DHT22;61859;49.204;8.140;2023-06-04T01:16:44;15.90;50.90
73576;DHT22;61859;49.204;8.140;2023-06-04T01:25:02;15.80;51.60
73576;DHT22;61859;49.204;8.140;2023-06-04T01:27:29;15.70;51.20
73576;DHT22;61859;49.204;8.140;2023-06-04T01:29:56;15.80;51.70
73576;DHT22;61859;49.204;8.140;2023-06-04T01:32:23;15.70;52.10
73576;DHT22;61859;49.204;8.140;2023-06-04T01:34:49;15.60;51.70
73576;DHT22;61859;49.204;8.140;2023-06-04T01:37:14;15.50;51.70
73576;DHT22;61859;49.204;8.140;2023-06-04T01:39:42;15.60;52.10
73576;DHT22;61859;49.204;8.140;2023-06-04T01:42:08;15.60;52.30
73576;DHT22;61859;49.204;8.140;2023-06-04T01:44:34;15.60;52.30
73576;DHT22;61859;49.204;8.140;2023-06-04T01:47:00;15.50;52.00
73576;DHT22;61859;49.204;8.140;2023-06-04T01:49:25;15.50;51.90
73576;DHT22;61859;49.204;8.140;2023-06-04T01:51:51;15.50;52.20
73576;DHT22;61859;49.204;8.140;2023-06-04T01:54:16;15.50;52.40
73576;DHT22;61859;49.204;8.140;2023-06-04T01:56:43;15.40;53.30
73576;DHT22;61859;49.204;8.140;2023-06-04T01:59:08;15.30;53.20
73576;DHT22;61859;49.204;8.140;2023-06-04T02:01:37;15.30;53.60
73576;DHT22;61859;49.204;8.140;2023-06-04T02:04:03;15.20;53.60
73576;DHT22;61859;49.204;8.140;2023-06-04T02:06:28;15.10;54.30
73576;DHT22;61859;49.204;8.140;2023-06-04T02:08:55;15.10;54.40
73576;DHT22;61859;49.204;8.140;2023-06-04T02:11:21;15.10;54.50
73576;DHT22;61859;49.204;8.140;2023-06-04T02:13:46;14.90;54.30
73576;DHT22;61859;49.204;8.140;2023-06-04T02:16:12;14.90;54.60
73576;DHT22;61859;49.204;8.140;2023-06-04T02:18:37;14.90;54.50
73576;DHT22;61859;49.204;8.140;2023-06-04T02:21:03;14.80;54.40
73576;DHT22;61859;49.204;8.140;2023-06-04T02:23:29;14.80;54.60
73576;DHT22;61859;49.204;8.140;2023-06-04T02:25:54;14.80;54.80
73576;DHT22;61859;49.204;8.140;2023-06-04T02:28:20;14.70;54.40
73576;DHT22;61859;49.204;8.140;2023-06-04T02:30:46;14.70;54.20
73576;DHT22;61859;49.204;8.140;2023-06-04T02:33:12;14.70;54.30
73576;DHT22;61859;49.204;8.140;2023-06-04T02:35:38;14.70;54.00
73576;DHT22;61859;49.204;8.140;2023-06-04T02:38:04;14.70;54.40
73576;DHT22;61859;49.204;8.140;2023-06-04T02:40:30;14.60;54.80
73576;DHT22;61859;49.204;8.140;2023-06-04T02:42:56;14.60;54.70
73576;DHT22;61859;49.204;8.140;2023-06-04T02:45:22;14.50;54.60
73576;DHT22;61859;49.204;8.140;2023-06-04T02:47:48;14.60;54.90
73576;DHT22;61859;49.204;8.140;2023-06-04T02:50:14;14.50;54.90
73576;DHT22;61859;49.204;8.140;2023-06-04T02:52:41;14.50;54.40
73576;DHT22;61859;49.204;8.140;2023-06-04T02:55:07;14.40;54.40
73576;DHT22;61859;49.204;8.140;2023-06-04T02:57:34;14.40;54.40
73576;DHT22;61859;49.204;8.140;2023-06-04T03:00:00;14.40;54.30
73576;DHT22;61859;49.204;8.140;2023-06-04T03:02:26;14.40;54.00
73576;DHT22;61859;49.204;8.140;2023-06-04T03:04:53;14.40;53.70
73576;DHT22;61859;49.204;8.140;2023-06-04T03:07:20;14.40;53.60
73576;DHT22;61859;49.204;8.140;2023-06-04T03:09:48;14.40;53.20
73576;DHT22;61859;49.204;8.140;2023-06-04T03:12:14;14.50;52.90
73576;DHT22;61859;49.204;8.140;2023-06-04T03:14:39;14.60;53.20
73576;DHT22;61859;49.204;8.140;2023-06-04T03:17:05;14.50;52.90
73576;DHT22;61859;49.204;8.140;2023-06-04T03:19:40;14.60;53.30
73576;DHT22;61859;49.204;8.140;2023-06-04T03:22:07;14.50;53.60
73576;DHT22;61859;49.204;8.140;2023-06-04T03:24:34;14.40;53.00
73576;DHT22;61859;49.204;8.140;2023-06-04T03:27:00;14.40;53.20
73576;DHT22;61859;49.204;8.140;2023-06-04T03:29:26;14.40;53.20
73576;DHT22;61859;49.204;8.140;2023-06-04T03:31:52;14.40;53.50
73576;DHT22;61859;49.204;8.140;2023-06-04T03:34:17;14.30;53.30
73576;DHT22;61859;49.204;8.140;2023-06-04T03:36:43;14.30;53.20
73576;DHT22;61859;49.204;8.140;2023-06-04T03:39:09;14.30;53.80
73576;DHT22;61859;49.204;8.140;2023-06-04T03:41:34;14.30;53.80
73576;DHT22;61859;49.204;8.140;2023-06-04T03:44:00;14.30;54.20
73576;DHT22;61859;49.204;8.140;2023-06-04T03:46:25;14.30;53.80
73576;DHT22;61859;49.204;8.140;2023-06-04T03:48:52;14.30;53.80
73576;DHT22;61859;49.204;8.140;2023-06-04T03:51:18;14.20;54.00
73576;DHT22;61859;49.204;8.140;2023-06-04T03:53:43;14.30;54.00
73576;DHT22;61859;49.204;8.140;2023-06-04T03:56:09;14.20;54.20
73576;DHT22;61859;49.204;8.140;2023-06-04T03:58:35;14.20;53.90
73576;DHT22;61859;49.204;8.140;2023-06-04T04:01:01;14.30;54.10
73576;DHT22;61859;49.204;8.140;2023-06-04T04:03:30;14.20;53.90
73576;DHT22;61859;49.204;8.140;2023-06-04T04:05:57;14.20;53.70
73576;DHT22;61859;49.204;8.140;2023-06-04T04:08:23;14.30;53.80
73576;DHT22;61859;49.204;8.140;2023-06-04T04:10:49;14.30;54.00
73576;DHT22;61859;49.204;8.140;2023-06-04T04:13:15;14.30;53.60
73576;DHT22;61859;49.204;8.140;2023-06-04T04:15:40;14.30;53.40
73576;DHT22;61859;49.204;8.140;2023-06-04T04:18:06;14.30;54.10
73576;DHT22;61859;49.204;8.140;2023-06-04T04:20:33;14.40;53.70
73576;DHT22;61859;49.204;8.140;2023-06-04T04:22:59;14.40;53.70
73576;DHT22;61859;49.204;8.140;2023-06-04T04:25:24;14.40;53.60
73576;DHT22;61859;49.204;8.140;2023-06-04T04:27:50;14.40;54.00
73576;DHT22;61859;49.204;8.140;2023-06-04T04:30:15;14.50;54.50
73576;DHT22;61859;49.204;8.140;2023-06-04T04:32:42;14.60;53.70
73576;DHT22;61859;49.204;8.140;2023-06-04T04:35:14;14.60;54.10
73576;DHT22;61859;49.204;8.140;2023-06-04T04:37:40;14.60;53.50
73576;DHT22;61859;49.204;8.140;2023-06-04T04:40:08;14.70;53.70
73576;DHT22;61859;49.204;8.140;2023-06-04T04:42:35;14.80;53.40
73576;DHT22;61859;49.204;8.140;2023-06-04T04:45:01;14.70;53.00
73576;DHT22;61859;49.204;8.140;2023-06-04T04:47:26;14.80;52.80
73576;DHT22;61859;49.204;8.140;2023-06-04T04:49:52;15.00;52.50
73576;DHT22;61859;49.204;8.140;2023-06-04T04:52:17;15.10;52.80
73576;DHT22;61859;49.204;8.140;2023-06-04T04:54:43;15.20;51.70
73576;DHT22;61859;49.204;8.140;2023-06-04T04:57:08;15.30;51.40
73576;DHT22;61859;49.204;8.140;2023-06-04T04:59:34;15.40;50.80
73576;DHT22;61859;49.204;8.140;2023-06-04T05:02:00;15.50;51.30
73576;DHT22;61859;49.204;8.140;2023-06-04T05:04:25;15.60;50.90
73576;DHT22;61859;49.204;8.140;2023-06-04T05:06:51;15.70;50.60
73576;DHT22;61859;49.204;8.140;2023-06-04T05:09:17;15.70;50.60
73576;DHT22;61859;49.204;8.140;2023-06-04T05:11:42;15.80;50.00
73576;DHT22;61859;49.204;8.140;2023-06-04T05:14:08;15.80;49.70
73576;DHT22;61859;49.204;8.140;2023-06-04T05:16:33;15.80;49.40
73576;DHT22;61859;49.204;8.140;2023-06-04T05:19:01;15.80;49.80
73576;DHT22;61859;49.204;8.140;2023-06-04T05:21:27;15.80;50.40
73576;DHT22;61859;49.204;8.140;2023-06-04T05:23:54;15.80;50.30
73576;DHT22;61859;49.204;8.140;2023-06-04T05:26:20;15.70;50.30
73576;DHT22;61859;49.204;8.140;2023-06-04T05:28:53;15.80;51.40
73576;DHT22;61859;49.204;8.140;2023-06-04T05:31:19;15.90;50.50
73576;DHT22;61859;49.204;8.140;2023-06-04T05:33:44;15.80;50.10
73576;DHT22;61859;49.204;8.140;2023-06-04T05:36:10;15.90;50.20
73576;DHT22;61859;49.204;8.140;2023-06-04T05:38:36;16.00;50.10
73576;DHT22;61859;49.204;8.140;2023-06-04T05:41:02;16.00;49.90
73576;DHT22;61859;49.204;8.140;2023-06-04T05:43:27;16.00;49.70
73576;DHT22;61859;49.204;8.140;2023-06-04T05:45:53;16.00;50.50
73576;DHT22;61859;49.204;8.140;2023-06-04T05:48:18;16.20;49.80
73576;DHT22;61859;49.204;8.140;2023-06-04T05:50:44;16.20;49.70
73576;DHT22;61859;49.204;8.140;2023-06-04T05:53:10;16.30;49.90
73576;DHT22;61859;49.204;8.140;2023-06-04T05:55:35;16.40;49.60
73576;DHT22;61859;49.204;8.140;2023-06-04T05:58:01;16.40;50.00
73576;DHT22;61859;49.204;8.140;2023-06-04T06:00:27;16.60;50.00
73576;DHT22;61859;49.204;8.140;2023-06-04T06:02:53;16.60;49.10
73576;DHT22;61859;49.204;8.140;2023-06-04T06:05:19;16.60;47.90
73576;DHT22;61859;49.204;8.140;2023-06-04T06:07:45;16.80;48.40
73576;DHT22;61859;49.204;8.140;2023-06-04T06:10:11;16.80;48.00
73576;DHT22;61859;49.204;8.140;2023-06-04T06:12:37;16.90;47.60
73576;DHT22;61859;49.204;8.140;2023-06-04T06:15:03;16.90;47.90
73576;DHT22;61859;49.204;8.140;2023-06-04T06:17:29;17.00;48.60
73576;DHT22;61859;49.204;8.140;2023-06-04T06:19:55;17.10;48.00
73576;DHT22;61859;49.204;8.140;2023-06-04T06:22:21;17.30;48.00
73576;DHT22;61859;49.204;8.140;2023-06-04T06:24:47;17.30;48.20
73576;DHT22;61859;49.204;8.140;2023-06-04T06:27:16;17.50;47.50
73576;DHT22;61859;49.204;8.140;2023-06-04T06:29:42;17.60;47.60
73576;DHT22;61859;49.204;8.140;2023-06-04T06:32:09;17.70;48.20
73576;DHT22;61859;49.204;8.140;2023-06-04T06:34:35;17.90;47.50
73576;DHT22;61859;49.204;8.140;2023-06-04T06:37:00;18.10;46.20
73576;DHT22;61859;49.204;8.140;2023-06-04T06:39:26;18.10;46.00
73576;DHT22;61859;49.204;8.140;2023-06-04T06:41:52;18.30;46.00
73576;DHT22;61859;49.204;8.140;2023-06-04T06:44:17;18.30;45.70
73576;DHT22;61859;49.204;8.140;2023-06-04T06:46:43;18.40;45.30
73576;DHT22;61859;49.204;8.140;2023-06-04T06:49:09;18.50;45.90
73576;DHT22;61859;49.204;8.140;2023-06-04T06:51:34;18.60;45.50
73576;DHT22;61859;49.204;8.140;2023-06-04T06:54:00;18.70;45.30
73576;DHT22;61859;49.204;8.140;2023-06-04T06:56:25;18.90;45.30
73576;DHT22;61859;49.204;8.140;2023-06-04T06:58:51;19.20;44.40
73576;DHT22;61859;49.204;8.140;2023-06-04T07:01:16;19.30;44.20
73576;DHT22;61859;49.204;8.140;2023-06-04T07:03:42;19.50;44.10
73576;DHT22;61859;49.204;8.140;2023-06-04T07:06:08;19.60;43.50
73576;DHT22;61859;49.204;8.140;2023-06-04T07:08:33;19.70;41.40
73576;DHT22;61859;49.204;8.140;2023-06-04T07:11:00;19.80;42.50
73576;DHT22;61859;49.204;8.140;2023-06-04T07:13:27;20.00;42.10
73576;DHT22;61859;49.204;8.140;2023-06-04T07:15:53;20.10;42.40
73576;DHT22;61859;49.204;8.140;2023-06-04T07:18:18;20.30;41.50
73576;DHT22;61859;49.204;8.140;2023-06-04T07:20:44;20.50;41.00
73576;DHT22;61859;49.204;8.140;2023-06-04T07:23:09;20.70;41.50
73576;DHT22;61859;49.204;8.140;2023-06-04T07:25:35;20.80;41.80
73576;DHT22;61859;49.204;8.140;2023-06-04T07:28:01;21.10;40.60
73576;DHT22;61859;49.204;8.140;2023-06-04T07:30:29;21.40;40.50
73576;DHT22;61859;49.204;8.140;2023-06-04T07:32:56;21.50;39.90
73576;DHT22;61859;49.204;8.140;2023-06-04T07:35:21;21.80;39.40
73576;DHT22;61859;49.204;8.140;2023-06-04T07:37:47;22.00;39.40
73576;DHT22;61859;49.204;8.140;2023-06-04T07:40:14;22.10;39.40
73576;DHT22;61859;49.204;8.140;2023-06-04T07:42:41;22.30;39.40
73576;DHT22;61859;49.204;8.140;2023-06-04T07:45:08;22.40;39.40
73576;DHT22;61859;49.204;8.140;2023-06-04T07:47:35;22.50;39.00
73576;DHT22;61859;49.204;8.140;2023-06-04T07:50:01;22.60;39.10
73576;DHT22;61859;49.204;8.140;2023-06-04T07:52:26;23.00;39.50
73576;DHT22;61859;49.204;8.140;2023-06-04T07:54:52;23.20;38.80
73576;DHT22;61859;49.204;8.140;2023-06-04T07:57:17;23.40;38.30
73576;DHT22;61859;49.204;8.140;2023-06-04T07:59:43;23.50;38.10
73576;DHT22;61859;49.204;8.140;2023-06-04T08:02:08;23.50;37.80
73576;DHT22;61859;49.204;8.140;2023-06-04T08:04:34;23.60;38.60
73576;DHT22;61859;49.204;8.140;2023-06-04T08:06:59;23.70;38.10
73576;DHT22;61859;49.204;8.140;2023-06-04T08:09:26;23.80;38.40
73576;DHT22;61859;49.204;8.140;2023-06-04T08:11:51;23.90;38.40
73576;DHT22;61859;49.204;8.140;2023-06-04T08:14:17;24.10;38.30
73576;DHT22;61859;49.204;8.140;2023-06-04T08:16:42;24.10;37.80
73576;DHT22;61859;49.204;8.140;2023-06-04T08:19:08;24.10;37.80
73576;DHT22;61859;49.204;8.140;2023-06-04T08:21:34;24.10;38.50
73576;DHT22;61859;49.204;8.140;2023-06-04T08:24:00;24.30;38.10
73576;DHT22;61859;49.204;8.140;2023-06-04T08:26:26;24.40;38.00
73576;DHT22;61859;49.204;8.140;2023-06-04T08:28:55;24.50;37.30
73576;DHT22;61859;49.204;8.140;2023-06-04T08:31:20;24.50;38.20
73576;DHT22;61859;49.204;8.140;2023-06-04T08:33:47;24.60;38.00
73576;DHT22;61859;49.204;8.140;2023-06-04T08:36:13;24.70;37.40
73576;DHT22;61859;49.204;8.140;2023-06-04T08:38:38;24.80;37.20
73576;DHT22;61859;49.204;8.140;2023-06-04T08:41:13;24.90;38.50
73576;DHT22;61859;49.204;8.140;2023-06-04T08:43:40;25.10;37.60
73576;DHT22;61859;49.204;8.140;2023-06-04T08:46:09;25.40;36.90
73576;DHT22;61859;49.204;8.140;2023-06-04T08:48:37;25.40;36.70
73576;DHT22;61859;49.204;8.140;2023-06-04T08:51:05;25.50;37.00
73576;DHT22;61859;49.204;8.140;2023-06-04T08:53:32;25.60;36.90
73576;DHT22;61859;49.204;8.140;2023-06-04T08:55:58;25.70;37.00
73576;DHT22;61859;49.204;8.140;2023-06-04T08:58:25;26.00;36.70
73576;DHT22;61859;49.204;8.140;2023-06-04T09:00:51;26.30;36.00
73576;DHT22;61859;49.204;8.140;2023-06-04T09:03:17;26.40;36.20
73576;DHT22;61859;49.204;8.140;2023-06-04T09:05:47;26.50;36.20
73576;DHT22;61859;49.204;8.140;2023-06-04T09:08:17;26.60;35.90
73576;DHT22;61859;49.204;8.140;2023-06-04T09:10:44;26.70;35.90
73576;DHT22;61859;49.204;8.140;2023-06-04T09:13:11;26.80;36.00
73576;DHT22;61859;49.204;8.140;2023-06-04T09:15:37;27.10;35.60
73576;DHT22;61859;49.204;8.140;2023-06-04T09:18:02;27.20;35.50
73576;DHT22;61859;49.204;8.140;2023-06-04T09:20:28;27.30;35.10
73576;DHT22;61859;49.204;8.140;2023-06-04T09:22:53;27.40;35.40
73576;DHT22;61859;49.204;8.140;2023-06-04T09:25:27;27.80;35.30
73576;DHT22;61859;49.204;8.140;2023-06-04T09:27:53;28.00;35.20
73576;DHT22;61859;49.204;8.140;2023-06-04T09:30:21;28.10;34.30
73576;DHT22;61859;49.204;8.140;2023-06-04T09:32:47;28.20;35.10
73576;DHT22;61859;49.204;8.140;2023-06-04T09:35:19;28.30;34.40
73576;DHT22;61859;49.204;8.140;2023-06-04T09:37:55;28.50;34.50
73576;DHT22;61859;49.204;8.140;2023-06-04T09:40:21;28.40;34.50
73576;DHT22;61859;49.204;8.140;2023-06-04T09:42:48;28.60;34.60
73576;DHT22;61859;49.204;8.140;2023-06-04T09:45:32;28.70;34.00
73576;DHT22;61859;49.204;8.140;2023-06-04T09:47:59;28.90;34.10
73576;DHT22;61859;49.204;8.140;2023-06-04T09:50:26;29.00;33.60
73576;DHT22;61859;49.204;8.140;2023-06-04T09:52:52;29.00;33.70
73576;DHT22;61859;49.204;8.140;2023-06-04T09:55:18;29.10;34.00
73576;DHT22;61859;49.204;8.140;2023-06-04T09:57:54;29.20;34.10
73576;DHT22;61859;49.204;8.140;2023-06-04T10:00:22;29.50;33.60
73576;DHT22;61859;49.204;8.140;2023-06-04T10:02:48;29.60;33.70
73576;DHT22;61859;49.204;8.140;2023-06-04T10:05:15;30.00;33.80
73576;DHT22;61859;49.204;8.140;2023-06-04T10:07:44;30.20;33.40
73576;DHT22;61859;49.204;8.140;2023-06-04T10:10:23;30.20;32.30
73576;DHT22;61859;49.204;8.140;2023-06-04T10:13:05;30.10;32.60
73576;DHT22;61859;49.204;8.140;2023-06-04T10:15:32;30.20;32.20
73576;DHT22;61859;49.204;8.140;2023-06-04T10:18:02;30.20;32.30
73576;DHT22;61859;49.204;8.140;2023-06-04T10:20:28;30.20;32.40
73576;DHT22;61859;49.204;8.140;2023-06-04T10:22:55;30.40;32.00
73576;DHT22;61859;49.204;8.140;2023-06-04T10:25:20;30.50;31.20
73576;DHT22;61859;49.204;8.140;2023-06-04T10:27:46;30.80;31.10
73576;DHT22;61859;49.204;8.140;2023-06-04T10:30:12;31.00;30.60
73576;DHT22;61859;49.204;8.140;2023-06-04T10:32:38;31.20;31.40
73576;DHT22;61859;49.204;8.140;2023-06-04T10:35:05;31.30;30.50
73576;DHT22;61859;49.204;8.140;2023-06-04T10:37:33;31.60;30.40
73576;DHT22;61859;49.204;8.140;2023-06-04T10:39:59;31.50;30.80
73576;DHT22;61859;49.204;8.140;2023-06-04T10:42:25;31.80;30.40
73576;DHT22;61859;49.204;8.140;2023-06-04T10:44:53;32.00;29.40
73576;DHT22;61859;49.204;8.140;2023-06-04T10:47:26;32.20;29.30
73576;DHT22;61859;49.204;8.140;2023-06-04T10:49:53;32.40;29.10
73576;DHT22;61859;49.204;8.140;2023-06-04T10:52:19;32.20;29.00
73576;DHT22;61859;49.204;8.140;2023-06-04T10:54:46;31.90;29.10
73576;DHT22;61859;49.204;8.140;2023-06-04T10:57:15;31.80;28.80
73576;DHT22;61859;49.204;8.140;2023-06-04T10:59:53;31.80;28.90
73576;DHT22;61859;49.204;8.140;2023-06-04T11:02:18;32.00;29.30
73576;DHT22;61859;49.204;8.140;2023-06-04T11:04:44;32.30;28.70
73576;DHT22;61859;49.204;8.140;2023-06-04T11:07:10;32.40;28.80
73576;DHT22;61859;49.204;8.140;2023-06-04T11:09:50;32.60;28.60
73576;DHT22;61859;49.204;8.140;2023-06-04T11:12:16;32.90;28.40
73576;DHT22;61859;49.204;8.140;2023-06-04T11:14:53;33.10;27.80
73576;DHT22;61859;49.204;8.140;2023-06-04T11:17:19;33.00;28.00
73576;DHT22;61859;49.204;8.140;2023-06-04T11:19:45;33.30;28.00
73576;DHT22;61859;49.204;8.140;2023-06-04T11:22:11;33.50;28.20
73576;DHT22;61859;49.204;8.140;2023-06-04T11:24:37;33.80;28.20
73576;DHT22;61859;49.204;8.140;2023-06-04T11:27:03;34.10;27.60
73576;DHT22;61859;49.204;8.140;2023-06-04T11:29:29;34.10;27.70
73576;DHT22;61859;49.204;8.140;2023-06-04T11:31:54;33.60;27.70
73576;DHT22;61859;49.204;8.140;2023-06-04T11:34:24;33.30;27.80
73576;DHT22;61859;49.204;8.140;2023-06-04T11:36:50;33.30;28.50
73576;DHT22;61859;49.204;8.140;2023-06-04T11:39:18;33.30;27.60
73576;DHT22;61859;49.204;8.140;2023-06-04T11:41:44;33.40;27.50
73576;DHT22;61859;49.204;8.140;2023-06-04T11:44:11;33.60;27.40
73576;DHT22;61859;49.204;8.140;2023-06-04T11:46:41;34.10;27.40
73576;DHT22;61859;49.204;8.140;2023-06-04T11:49:12;34.10;27.20
73576;DHT22;61859;49.204;8.140;2023-06-04T11:51:46;33.80;27.70
73576;DHT22;61859;49.204;8.140;2023-06-04T11:54:12;34.00;27.90
73576;DHT22;61859;49.204;8.140;2023-06-04T11:56:37;34.20;27.70
73576;DHT22;61859;49.204;8.140;2023-06-04T11:59:03;34.20;27.20
73576;DHT22;61859;49.204;8.140;2023-06-04T12:01:28;34.70;27.50
73576;DHT22;61859;49.204;8.140;2023-06-04T12:03:57;35.30;27.10
73576;DHT22;61859;49.204;8.140;2023-06-04T12:06:23;36.00;26.90
73576;DHT22;61859;49.204;8.140;2023-06-04T12:08:55;36.60;26.50
73576;DHT22;61859;49.204;8.140;2023-06-04T12:13:57;36.80;26.20
73576;DHT22;61859;49.204;8.140;2023-06-04T12:16:23;36.50;26.50
73576;DHT22;61859;49.204;8.140;2023-06-04T12:18:48;36.20;27.30
73576;DHT22;61859;49.204;8.140;2023-06-04T12:21:24;35.80;27.20
73576;DHT22;61859;49.204;8.140;2023-06-04T12:24:13;35.30;27.10
73576;DHT22;61859;49.204;8.140;2023-06-04T12:26:41;35.30;27.70
73576;DHT22;61859;49.204;8.140;2023-06-04T12:29:08;35.40;27.50
73576;DHT22;61859;49.204;8.140;2023-06-04T12:31:36;35.20;27.40
73576;DHT22;61859;49.204;8.140;2023-06-04T12:34:01;35.50;28.00
73576;DHT22;61859;49.204;8.140;2023-06-04T12:36:27;35.80;27.30
73576;DHT22;61859;49.204;8.140;2023-06-04T12:38:57;36.10;27.10
73576;DHT22;61859;49.204;8.140;2023-06-04T12:41:23;36.40;27.00
73576;DHT22;61859;49.204;8.140;2023-06-04T12:43:49;36.40;27.20
73576;DHT22;61859;49.204;8.140;2023-06-04T12:46:14;36.60;27.50
73576;DHT22;61859;49.204;8.140;2023-06-04T12:48:40;36.50;27.60
73576;DHT22;61859;49.204;8.140;2023-06-04T12:51:08;36.20;27.20
73576;DHT22;61859;49.204;8.140;2023-06-04T12:53:33;35.70;27.80
73576;DHT22;61859;49.204;8.140;2023-06-04T12:55:59;35.10;27.70
73576;DHT22;61859;49.204;8.140;2023-06-04T12:58:24;34.70;28.00
73576;DHT22;61859;49.204;8.140;2023-06-04T13:00:50;34.60;28.00
73576;DHT22;61859;49.204;8.140;2023-06-04T13:03:15;34.70;28.30
73576;DHT22;61859;49.204;8.140;2023-06-04T13:05:41;35.00;28.30
73576;DHT22;61859;49.204;8.140;2023-06-04T13:08:06;35.60;27.50
73576;DHT22;61859;49.204;8.140;2023-06-04T13:10:32;35.80;26.70
73576;DHT22;61859;49.204;8.140;2023-06-04T13:12:58;35.90;27.10
73576;DHT22;61859;49.204;8.140;2023-06-04T13:15:23;36.00;26.30
73576;DHT22;61859;49.204;8.140;2023-06-04T13:17:49;35.90;26.60
73576;DHT22;61859;49.204;8.140;2023-06-04T13:20:14;36.10;27.20
73576;DHT22;61859;49.204;8.140;2023-06-04T13:22:40;36.10;26.40
73576;DHT22;61859;49.204;8.140;2023-06-04T13:25:06;36.20;26.70
73576;DHT22;61859;49.204;8.140;2023-06-04T13:27:31;36.30;26.30
73576;DHT22;61859;49.204;8.140;2023-06-04T13:29:57;36.60;27.30
73576;DHT22;61859;49.204;8.140;2023-06-04T13:32:22;37.10;26.50
73576;DHT22;61859;49.204;8.140;2023-06-04T13:34:48;37.20;26.00
73576;DHT22;61859;49.204;8.140;2023-06-04T13:37:13;37.10;26.20
73576;DHT22;61859;49.204;8.140;2023-06-04T13:39:39;37.50;26.10
73576;DHT22;61859;49.204;8.140;2023-06-04T13:42:04;38.10;26.60
73576;DHT22;61859;49.204;8.140;2023-06-04T13:44:30;38.00;25.30
73576;DHT22;61859;49.204;8.140;2023-06-04T13:46:58;37.70;25.50
73576;DHT22;61859;49.204;8.140;2023-06-04T13:49:24;37.40;25.40
73576;DHT22;61859;49.204;8.140;2023-06-04T13:51:49;37.30;25.60
73576;DHT22;61859;49.204;8.140;2023-06-04T13:54:15;36.90;25.50
73576;DHT22;61859;49.204;8.140;2023-06-04T13:56:40;36.80;25.60
73576;DHT22;61859;49.204;8.140;2023-06-04T13:59:06;37.00;26.20
73576;DHT22;61859;49.204;8.140;2023-06-04T14:01:31;37.50;25.70
73576;DHT22;61859;49.204;8.140;2023-06-04T14:03:57;37.20;25.10
73576;DHT22;61859;49.204;8.140;2023-06-04T14:06:24;36.90;25.60
73576;DHT22;61859;49.204;8.140;2023-06-04T14:08:49;36.60;25.40
73576;DHT22;61859;49.204;8.140;2023-06-04T14:11:15;36.20;25.30
73576;DHT22;61859;49.204;8.140;2023-06-04T14:13:40;36.30;25.90
73576;DHT22;61859;49.204;8.140;2023-06-04T14:16:10;36.50;25.70
73576;DHT22;61859;49.204;8.140;2023-06-04T14:18:35;36.90;25.60
73576;DHT22;61859;49.204;8.140;2023-06-04T14:21:01;36.90;25.20
73576;DHT22;61859;49.204;8.140;2023-06-04T14:23:26;36.70;25.10
73576;DHT22;61859;49.204;8.140;2023-06-04T14:25:52;36.60;25.20
73576;DHT22;61859;49.204;8.140;2023-06-04T14:28:18;36.10;25.30
73576;DHT22;61859;49.204;8.140;2023-06-04T14:30:46;35.90;25.40
73576;DHT22;61859;49.204;8.140;2023-06-04T14:33:11;35.50;25.50
73576;DHT22;61859;49.204;8.140;2023-06-04T14:35:37;35.20;26.00
73576;DHT22;61859;49.204;8.140;2023-06-04T14:38:04;35.00;25.40
73576;DHT22;61859;49.204;8.140;2023-06-04T14:40:30;34.80;25.80
73576;DHT22;61859;49.204;8.140;2023-06-04T14:42:55;35.00;25.80
73576;DHT22;61859;49.204;8.140;2023-06-04T14:45:22;35.20;25.60
73576;DHT22;61859;49.204;8.140;2023-06-04T14:47:48;35.50;25.60
73576;DHT22;61859;49.204;8.140;2023-06-04T14:50:16;35.40;25.60
73576;DHT22;61859;49.204;8.140;2023-06-04T14:52:42;35.40;25.30
73576;DHT22;61859;49.204;8.140;2023-06-04T14:55:08;35.50;25.40
73576;DHT22;61859;49.204;8.140;2023-06-04T14:57:34;35.50;25.40
73576;DHT22;61859;49.204;8.140;2023-06-04T15:00:00;35.40;25.40
73576;DHT22;61859;49.204;8.140;2023-06-04T15:02:26;35.20;25.30
73576;DHT22;61859;49.204;8.140;2023-06-04T15:04:52;34.90;25.70
73576;DHT22;61859;49.204;8.140;2023-06-04T15:07:17;34.70;25.70
73576;DHT22;61859;49.204;8.140;2023-06-04T15:09:44;34.40;25.50
73576;DHT22;61859;49.204;8.140;2023-06-04T15:12:09;34.10;25.40
73576;DHT22;61859;49.204;8.140;2023-06-04T15:14:35;34.00;25.50
73576;DHT22;61859;49.204;8.140;2023-06-04T15:17:00;34.00;25.80
73576;DHT22;61859;49.204;8.140;2023-06-04T15:19:26;33.90;26.40
73576;DHT22;61859;49.204;8.140;2023-06-04T15:21:51;33.90;25.30
73576;DHT22;61859;49.204;8.140;2023-06-04T15:24:17;33.80;25.60
73576;DHT22;61859;49.204;8.140;2023-06-04T15:26:42;33.40;25.80
73576;DHT22;61859;49.204;8.140;2023-06-04T15:29:09;33.20;26.30
73576;DHT22;61859;49.204;8.140;2023-06-04T15:31:35;33.20;26.90
73576;DHT22;61859;49.204;8.140;2023-06-04T15:34:00;33.20;26.50